Time;durP1;ratioP1;P1;durP2;ratioP2;P2;SDS_P1;SDS_P2;PMS_P1;PMS_P2;Temp;Humidity;BMP_temperature;BMP_pressure;BME280_temperature;BME280_humidity;BME280_pressure;Samples;Min_cycle;Max_cycle;Signal;HPM_P1;HPM_P2
2023/03/19 00:00:43;;;;;;;30.23;19.45;;;;;;;5.81;54.55;99541.99;1708286;82;21041;-62
2023/03/19 00:03:11;;;;;;;28.85;19.65;;;;;;;5.82;54.53;99553.20;1705393;82;21021;-62
2023/03/19 00:05:38;;;;;;;29.40;19.07;;;;;;;5.85;54.51;99546.63;1703544;82;21005;-61
2023/03/19 00:08:05;;;;;;;29.60;19.52;;;;;;;5.90;54.66;99551.23;1708838;82;21560;-63
2023/03/19 00:10:31;;;;;;;;;;;;;;;5.96;54.74;99556.25;1709436;82;21020;-61
2023/03/19 00:12:58;;;;;;;26.00;17.43;;;;;;;6.09;54.95;99561.06;1708023;82;20178;-63
2023/03/19 00:15:25;;;;;;;24.32;17.95;;;;;;;6.09;54.95;99561.06;1707263;82;20981;-61
2023/03/19 00:17:53;;;;;;;31.23;19.25;;;;;;;6.14;54.96;99566.95;1706143;82;20980;-61
2023/03/19 00:20:21;;;;;;;33.25;18.82;;;;;;;6.14;54.94;99561.77;1700263;82;20992;-62
2023/03/19 00:22:47;;;;;;;29.48;19.55;;;;;;;6.14;55.01;99561.77;1686887;83;21509;-61
2023/03/19 00:25:14;;;;;;;29.40;18.73;;;;;;;6.11;54.92;99556.23;1711111;82;20988;-61
2023/03/19 00:27:43;;;;;;;29.25;18.60;;;;;;;6.02;55.01;99558.67;1708730;82;21130;-61
2023/03/19 00:30:11;;;;;;;29.72;19.42;;;;;;;5.94;55.01;99552.88;1706781;82;20960;-62
2023/03/19 00:32:38;;;;;;;29.40;19.15;;;;;;;5.82;55.12;99555.80;1719501;82;21016;-61
2023/03/19 00:35:07;;;;;;;31.37;20.65;;;;;;;5.74;55.12;99558.64;1711244;82;21067;-62
2023/03/19 00:37:36;;;;;;;33.53;19.73;;;;;;;5.71;55.27;99557.86;1716748;82;21503;-65
2023/03/19 00:40:04;;;;;;;33.00;19.55;;;;;;;5.75;55.37;99562.07;1714376;82;22586;-62
2023/03/19 00:42:31;;;;;;;31.27;19.20;;;;;;;5.78;55.41;99560.68;1709933;82;21007;-61
2023/03/19 00:44:57;;;;;;;31.62;18.80;;;;;;;5.81;55.44;99559.29;1719729;82;21088;-62
2023/03/19 00:47:24;;;;;;;31.10;19.45;;;;;;;5.85;55.47;99559.58;1684674;83;21058;-61
2023/03/19 00:49:51;;;;;;;36.67;19.37;;;;;;;5.88;55.54;99563.41;1673020;84;21010;-61
2023/03/19 00:52:17;;;;;;;26.40;18.95;;;;;;;5.92;55.59;99562.41;1669760;84;21068;-61
2023/03/19 00:54:44;;;;;;;27.40;19.45;;;;;;;5.97;55.53;99563.59;1679063;83;21420;-62
2023/03/19 00:57:11;;;;;;;26.52;19.05;;;;;;;5.97;55.61;99564.89;1662324;85;21034;-64
2023/03/19 00:59:38;;;;;;;30.30;20.15;;;;;;;5.94;55.63;99563.24;1720458;82;20980;-61
2023/03/19 01:02:05;;;;;;;33.18;20.00;;;;;;;5.89;55.63;99559.91;1712759;82;20980;-61
2023/03/19 01:04:32;;;;;;;;;;;;;;;5.85;55.69;99563.47;1720927;82;21000;-62
2023/03/19 01:06:59;;;;;;;29.32;18.95;;;;;;;5.79;55.79;99558.48;1717843;82;20129;-62
2023/03/19 01:09:26;;;;;;;32.90;20.10;;;;;;;5.64;55.72;99552.48;1716294;82;21047;-62
2023/03/19 01:11:52;;;;;;;27.97;18.27;;;;;;;5.58;55.88;99554.80;1719007;82;20964;-61
2023/03/19 01:14:19;;;;;;;31.80;20.23;;;;;;;5.57;55.99;99556.55;1717759;82;21348;-62
2023/03/19 01:16:45;;;;;;;30.73;20.00;;;;;;;5.60;55.95;99558.17;1718016;82;22145;-61
2023/03/19 01:19:13;;;;;;;28.07;19.70;;;;;;;5.66;56.08;99564.91;1712855;82;21541;-62
2023/03/19 01:21:40;;;;;;;34.83;22.55;;;;;;;5.66;56.00;99578.74;1708298;82;21019;-62
2023/03/19 01:24:06;;;;;;;42.73;22.30;;;;;;;5.53;55.88;99570.47;1718243;82;20921;-61
2023/03/19 01:26:33;;;;;;;31.50;20.40;;;;;;;5.46;56.11;99574.14;1717162;82;20988;-62
2023/03/19 01:28:59;;;;;;;29.63;20.97;;;;;;;5.49;56.25;99579.23;1714139;82;21272;-62
2023/03/19 01:31:26;;;;;;;46.45;21.97;;;;;;;5.56;56.36;99578.14;1714217;82;21005;-63
2023/03/19 01:33:53;;;;;;;32.95;20.20;;;;;;;5.58;56.31;99580.25;1714108;82;21029;-62
2023/03/19 01:36:19;;;;;;;30.48;19.77;;;;;;;5.65;56.25;99583.95;1716904;82;20976;-63
2023/03/19 01:38:46;;;;;;;35.38;20.97;;;;;;;5.71;56.42;99577.29;1716794;82;21007;-61
2023/03/19 01:41:13;;;;;;;33.43;20.10;;;;;;;5.79;56.50;99579.20;1721232;82;21055;-61
2023/03/19 01:43:40;;;;;;;28.05;19.75;;;;;;;5.85;56.56;99581.61;1716631;82;20993;-62
2023/03/19 01:46:30;;;;;;;31.48;19.95;;;;;;;5.90;56.66;99578.44;1715868;82;21014;-63
2023/03/19 01:49:00;;;;;;;27.73;19.10;;;;;;;5.92;56.66;99577.95;1710671;82;21032;-61
2023/03/19 01:51:37;;;;;;;29.23;19.12;;;;;;;5.95;56.59;99575.30;1710312;82;21566;-62
2023/03/19 01:54:09;;;;;;;35.73;20.30;;;;;;;5.97;56.66;99581.28;1716376;82;20968;-62
2023/03/19 01:56:38;;;;;;;30.50;19.75;;;;;;;5.99;56.73;99584.69;1715250;82;21020;-62
2023/03/19 01:59:29;;;;;;;28.70;19.98;;;;;;;6.01;56.73;99582.87;1691671;82;21016;-61
2023/03/19 02:02:01;;;;;;;28.80;19.85;;;;;;;6.02;56.76;99582.00;1713087;82;21014;-64
2023/03/19 02:04:31;;;;;;;28.67;18.98;;;;;;;6.00;56.74;99581.19;1708691;82;21047;-61
2023/03/19 02:07:00;;;;;;;30.77;19.67;;;;;;;5.94;56.71;99581.38;1685304;84;20968;-62
2023/03/19 02:09:29;;;;;;;27.50;18.70;;;;;;;5.91;56.80;99586.63;1723948;82;21716;-62
2023/03/19 02:11:56;;;;;;;30.45;18.98;;;;;;;5.87;56.76;99583.71;1715090;82;20992;-62
2023/03/19 02:14:23;;;;;;;29.07;18.65;;;;;;;5.84;56.90;99583.81;1715547;82;21047;-62
2023/03/19 02:16:50;;;;;;;34.80;18.98;;;;;;;5.84;57.02;99577.33;1711137;82;20982;-61
2023/03/19 02:19:25;;;;;;;30.43;18.62;;;;;;;5.91;57.06;99581.45;1720114;82;21013;-62
2023/03/19 02:21:53;;;;;;;26.12;18.77;;;;;;;6.03;57.20;99573.31;1721741;82;21023;-62
2023/03/19 02:24:27;;;;;;;32.33;19.92;;;;;;;6.07;57.07;99573.22;1711409;82;21063;-64
2023/03/19 02:26:57;;;;;;;27.37;18.92;;;;;;;6.12;57.15;99572.18;1721311;82;21070;-63
2023/03/19 02:29:24;;;;;;;28.12;19.07;;;;;;;6.17;57.23;99565.56;1715973;82;21504;-62
2023/03/19 02:31:50;;;;;;;33.80;19.90;;;;;;;6.25;57.37;99562.28;1717253;82;20980;-61
2023/03/19 02:34:25;;;;;;;30.32;19.60;;;;;;;6.33;57.40;99562.88;1718776;82;21008;-62
2023/03/19 02:36:59;;;;;;;27.90;18.73;;;;;;;6.41;57.42;99567.37;1721629;81;21110;-61
2023/03/19 02:39:44;;;;;;;28.12;18.65;;;;;;;6.46;57.41;99564.16;1729261;80;21031;-62
2023/03/19 02:42:12;;;;;;;27.67;18.95;;;;;;;6.49;57.43;99562.75;1723400;81;21414;-62
2023/03/19 02:44:39;;;;;;;32.33;18.30;;;;;;;6.63;57.31;99573.13;1726749;81;21113;-62
2023/03/19 02:47:06;;;;;;;28.98;19.35;;;;;;;6.74;57.11;99567.13;1729524;81;21063;-61
2023/03/19 02:49:35;;;;;;;28.87;19.20;;;;;;;6.74;57.11;99567.13;1727690;80;20955;-62
2023/03/19 02:52:21;;;;;;;28.67;19.40;;;;;;;6.78;57.31;99567.44;1726901;81;21067;-62
2023/03/19 02:55:08;;;;;;;27.50;17.87;;;;;;;6.78;57.23;99566.14;1721115;81;20990;-61
2023/03/19 02:57:57;;;;;;;24.87;17.65;;;;;;;6.79;57.34;99562.63;1725061;81;20992;-62
2023/03/19 03:00:56;;;;;;;25.55;17.45;;;;;;;6.81;57.35;99566.48;1720239;81;22469;-61
2023/03/19 03:03:26;;;;;;;25.70;17.82;;;;;;;6.84;57.38;99568.52;1726038;81;21069;-61
2023/03/19 03:05:53;;;;;;;27.40;18.42;;;;;;;6.85;57.34;99571.50;1726900;81;20984;-62
2023/03/19 03:08:19;;;;;;;26.70;19.15;;;;;;;6.87;57.34;99572.30;1723630;81;20969;-61
2023/03/19 03:10:47;;;;;;;25.90;18.37;;;;;;;6.86;57.38;99565.43;1704398;82;21601;-62
2023/03/19 03:13:14;;;;;;;32.58;18.42;;;;;;;6.81;57.50;99563.89;1727397;81;21603;-63
2023/03/19 03:15:41;;;;;;;26.73;18.25;;;;;;;6.83;57.59;99570.70;1726476;80;21480;-62
2023/03/19 03:18:07;;;;;;;28.17;18.23;;;;;;;6.89;57.68;99571.81;1726901;81;21682;-62
2023/03/19 03:20:34;;;;;;;26.15;19.23;;;;;;;6.91;57.72;99569.98;1725260;81;21260;-62
2023/03/19 03:23:00;;;;;;;28.47;19.12;;;;;;;6.94;57.71;99568.58;1727662;81;20942;-61
2023/03/19 03:25:27;;;;;;;27.25;19.45;;;;;;;7.00;57.73;99574.46;1727103;81;21014;-61
2023/03/19 03:27:54;;;;;;;28.38;18.77;;;;;;;7.05;57.76;99575.16;1728056;81;21067;-61
2023/03/19 03:30:20;;;;;;;28.95;19.00;;;;;;;7.09;57.72;99574.16;1730371;81;21172;-63
2023/03/19 03:32:47;;;;;;;29.90;20.20;;;;;;;7.10;57.64;99563.70;1726934;81;21100;-62
2023/03/19 03:35:20;;;;;;;34.03;19.30;;;;;;;7.07;57.57;99561.22;1724380;81;21025;-61
2023/03/19 03:37:42;;;;;;;29.65;18.65;;;;;;;7.08;57.64;99563.36;1724413;81;21031;-61
2023/03/19 03:40:11;;;;;;;24.57;18.23;;;;;;;7.09;57.70;99574.16;1724173;81;21056;-61
2023/03/19 03:42:37;;;;;;;27.13;18.85;;;;;;;7.12;57.78;99569.70;1727237;81;21029;-62
2023/03/19 03:45:06;;;;;;;25.80;19.00;;;;;;;7.15;57.75;99564.84;1726381;81;21316;-61
2023/03/19 03:47:32;;;;;;;28.10;18.00;;;;;;;7.14;57.70;99559.23;1724186;81;21124;-62
2023/03/19 03:49:59;;;;;;;23.00;16.57;;;;;;;7.12;57.71;99569.70;1723112;81;21063;-61
2023/03/19 03:52:30;;;;;;;25.27;18.25;;;;;;;7.13;57.80;99563.59;1728560;80;20964;-63
2023/03/19 03:54:54;;;;;;;26.42;19.07;;;;;;;7.20;57.84;99566.84;1728351;81;21472;-61
2023/03/19 03:57:21;;;;;;;29.07;17.77;;;;;;;7.17;57.88;99570.39;1729004;81;20960;-61
2023/03/19 03:59:47;;;;;;;27.07;18.27;;;;;;;7.16;57.95;99571.73;1727419;81;21578;-61
2023/03/19 04:02:14;;;;;;;23.75;17.62;;;;;;;7.18;58.03;99568.17;1723694;81;21364;-62
2023/03/19 04:04:41;;;;;;;26.65;18.92;;;;;;;7.23;58.09;99571.91;1730242;81;21193;-62
2023/03/19 04:07:08;;;;;;;28.32;18.55;;;;;;;7.29;58.18;99571.69;1721662;81;21007;-61
2023/03/19 04:09:35;;;;;;;25.05;17.52;;;;;;;7.34;58.11;99572.83;1725669;81;21004;-61
2023/03/19 04:12:03;;;;;;;29.37;19.80;;;;;;;7.34;58.02;99574.97;1729298;81;20964;-61
2023/03/19 04:14:30;;;;;;;28.92;18.40;;;;;;;7.27;57.93;99569.59;1731247;81;20952;-62
2023/03/19 04:16:59;;;;;;;23.65;18.07;;;;;;;7.15;58.06;99576.53;1727941;81;21026;-61
2023/03/19 04:19:26;;;;;;;27.87;18.27;;;;;;;7.03;58.10;99580.84;1724960;81;21477;-61
2023/03/19 04:21:52;;;;;;;31.05;19.27;;;;;;;6.91;58.20;99573.87;1724524;81;20950;-63
2023/03/19 04:24:19;;;;;;;23.95;17.12;;;;;;;6.85;58.30;99575.39;1726019;81;21306;-62
2023/03/19 04:26:48;;;;;;;27.90;17.92;;;;;;;6.89;58.46;99577.00;1726676;81;20998;-62
2023/03/19 04:29:17;;;;;;;25.20;17.77;;;;;;;6.91;58.39;99571.28;1728331;81;21024;-62
2023/03/19 04:31:44;;;;;;;28.23;18.45;;;;;;;6.90;58.42;99572.20;1723375;81;21104;-63
2023/03/19 04:34:12;;;;;;;26.48;17.35;;;;;;;6.91;58.49;99568.69;1728065;80;21018;-61
2023/03/19 04:36:38;;;;;;;;;;;;;;;6.93;58.37;99574.68;1724580;81;21035;-61
2023/03/19 04:39:05;;;;;;;30.72;20.25;;;;;;;6.84;58.32;99576.76;1714058;81;20185;-61
2023/03/19 04:41:32;;;;;;;32.17;20.40;;;;;;;6.70;58.47;99575.92;1709831;82;21026;-61
2023/03/19 04:43:58;;;;;;;27.07;18.50;;;;;;;6.68;58.49;99575.13;1714464;82;20910;-60
2023/03/19 04:46:25;;;;;;;29.40;20.43;;;;;;;6.72;58.56;99588.38;1716706;82;21065;-62
2023/03/19 04:48:52;;;;;;;35.63;22.20;;;;;;;6.76;58.54;99582.66;1712294;82;20932;-63
2023/03/19 04:51:20;;;;;;;25.23;17.32;;;;;;;6.78;58.58;99581.70;1716589;82;20972;-61
2023/03/19 04:53:48;;;;;;;26.50;18.00;;;;;;;6.67;58.74;99585.12;1717030;82;20940;-62
2023/03/19 04:56:17;;;;;;;27.42;18.35;;;;;;;6.58;58.83;99580.20;1714775;82;20984;-62
2023/03/19 04:58:45;;;;;;;25.15;17.70;;;;;;;6.56;58.87;99582.03;1710713;82;22236;-62
2023/03/19 05:01:12;;;;;;;22.75;16.93;;;;;;;6.55;58.91;99576.42;1716273;81;20984;-64
2023/03/19 05:03:39;;;;;;;31.82;20.00;;;;;;;6.47;58.91;99573.65;1718663;82;20991;-61
2023/03/19 05:06:05;;;;;;;36.10;17.92;;;;;;;6.39;58.97;99567.86;1714039;82;21000;-62
2023/03/19 05:08:32;;;;;;;27.85;20.27;;;;;;;6.36;59.06;99572.28;1712503;82;20941;-62
2023/03/19 05:10:59;;;;;;;27.93;19.27;;;;;;;6.34;59.17;99571.05;1711385;82;21570;-63
2023/03/19 05:13:25;;;;;;;31.80;18.50;;;;;;;6.34;59.26;99571.05;1713428;82;21695;-61
2023/03/19 05:15:54;;;;;;;27.50;17.77;;;;;;;6.38;59.21;99568.73;1716602;82;21054;-61
2023/03/19 05:18:21;;;;;;;29.45;18.82;;;;;;;6.34;59.19;99573.64;1716247;81;20944;-61
2023/03/19 05:20:49;;;;;;;27.60;17.77;;;;;;;6.29;59.32;99569.05;1713803;82;21010;-61
2023/03/19 05:23:18;;;;;;;28.60;18.85;;;;;;;6.35;59.51;99563.66;1716913;82;22332;-61
2023/03/19 05:25:48;;;;;;;26.68;17.27;;;;;;;6.45;59.61;99565.06;1713201;82;20993;-61
2023/03/19 05:28:14;;;;;;;31.82;18.45;;;;;;;6.65;59.55;99558.37;1726016;82;21525;-62
2023/03/19 05:30:42;;;;;;;30.20;17.32;;;;;;;6.69;59.65;99558.64;1717101;82;21558;-61
2023/03/19 05:33:08;;;;;;;26.10;17.20;;;;;;;6.77;59.63;99565.72;1717410;82;21051;-63
2023/03/19 05:35:37;;;;;;;32.70;18.23;;;;;;;6.84;59.46;99572.41;1721443;82;20993;-64
2023/03/19 05:38:06;;;;;;;26.35;17.90;;;;;;;6.72;59.53;99570.22;1729598;81;21165;-61
2023/03/19 05:40:34;;;;;;;30.77;18.98;;;;;;;6.58;59.48;99577.62;1725563;81;21020;-61
2023/03/19 05:43:01;;;;;;;28.07;18.52;;;;;;;6.45;59.65;99575.44;1730160;81;20972;-62
2023/03/19 05:45:28;;;;;;;26.80;18.13;;;;;;;6.43;59.73;99590.19;1726713;81;21601;-62
2023/03/19 05:47:55;;;;;;;29.25;18.07;;;;;;;6.42;59.81;99593.70;1726016;81;21054;-61
2023/03/19 05:50:22;;;;;;;27.20;18.87;;;;;;;6.44;59.93;99586.72;1729312;80;21083;-62
2023/03/19 05:52:51;;;;;;;29.35;17.95;;;;;;;6.52;59.95;99593.39;1693684;82;21537;-63
2023/03/19 05:55:19;;;;;;;30.00;18.75;;;;;;;6.50;59.80;99591.70;1697621;83;21583;-63
2023/03/19 05:57:58;;;;;;;;;;;;;;;;;;;;;
2023/03/19 06:00:19;;;;;;;29.50;18.92;;;;;;;6.52;59.95;99594.23;1720932;81;21102;-62
2023/03/19 06:02:51;;;;;;;26.07;17.17;;;;;;;6.59;60.15;99593.59;1727778;81;22433;-62
2023/03/19 06:05:20;;;;;;;25.90;17.77;;;;;;;6.72;60.29;99596.16;1706550;82;20976;-62
2023/03/19 06:07:47;;;;;;;27.20;18.48;;;;;;;6.86;60.40;99591.38;1727320;81;21050;-62
2023/03/19 06:10:18;;;;;;;23.83;17.85;;;;;;;7.04;60.23;99589.89;1722172;81;21014;-62
2023/03/19 06:12:49;;;;;;;27.13;19.40;;;;;;;7.22;60.15;99593.58;1718157;81;21085;-62
2023/03/19 06:15:17;;;;;;;34.73;19.73;;;;;;;7.27;59.94;99601.21;1701928;82;21038;-63
2023/03/19 06:17:44;;;;;;;24.98;17.87;;;;;;;7.21;60.05;99598.38;1724800;81;20991;-62
2023/03/19 06:20:14;;;;;;;26.30;17.82;;;;;;;7.26;59.77;99597.77;1699038;83;21002;-61
2023/03/19 06:22:44;;;;;;;30.55;20.55;;;;;;;6.98;60.06;99602.25;1732245;81;21037;-62
2023/03/19 06:25:14;;;;;;;30.37;21.77;;;;;;;6.86;60.26;99598.30;1725222;81;21597;-61
2023/03/19 06:27:41;;;;;;;33.00;20.72;;;;;;;6.86;60.39;99604.36;1728188;81;20947;-61
2023/03/19 06:30:12;;;;;;;29.02;20.27;;;;;;;6.90;60.54;99610.28;1723263;81;21106;-62
2023/03/19 06:32:38;;;;;;;30.52;20.55;;;;;;;6.94;60.53;99611.41;1672898;83;21077;-62
2023/03/19 06:35:07;;;;;;;27.55;19.70;;;;;;;7.05;60.68;99610.20;1693253;84;21052;-61
2023/03/19 06:37:34;;;;;;;30.68;20.37;;;;;;;7.19;60.79;99617.05;1728344;81;20983;-62
2023/03/19 06:40:01;;;;;;;30.88;21.68;;;;;;;7.39;60.94;99609.42;1728476;81;21079;-63
2023/03/19 06:42:27;;;;;;;37.70;22.52;;;;;;;7.63;60.92;99608.12;1728829;81;21242;-62
2023/03/19 06:44:54;;;;;;;36.25;23.35;;;;;;;7.82;60.85;99609.13;1731790;81;21633;-62
2023/03/19 06:47:21;;;;;;;39.05;23.98;;;;;;;7.95;60.88;99608.66;1734127;81;21727;-61
2023/03/19 06:49:48;;;;;;;31.55;21.60;;;;;;;8.08;60.96;99612.03;1729012;81;21581;-61
2023/03/19 06:52:14;;;;;;;35.10;23.47;;;;;;;8.23;61.00;99615.80;1738514;81;21046;-62
2023/03/19 06:54:42;;;;;;;37.33;23.40;;;;;;;8.37;60.84;99616.98;1728889;81;21060;-62
2023/03/19 06:57:09;;;;;;;31.97;23.00;;;;;;;8.45;60.88;99620.16;1731339;80;21090;-62
2023/03/19 06:59:36;;;;;;;42.48;26.25;;;;;;;8.54;60.94;99621.09;1730357;81;21019;-61
2023/03/19 07:02:03;;;;;;;37.27;26.23;;;;;;;8.57;60.74;99621.42;1730522;81;21082;-61
2023/03/19 07:04:30;;;;;;;52.17;30.25;;;;;;;8.52;60.87;99624.23;1725832;81;21077;-61
2023/03/19 07:06:56;;;;;;;62.48;33.65;;;;;;;8.49;60.84;99626.95;1729544;81;21015;-62
2023/03/19 07:09:23;;;;;;;40.30;26.57;;;;;;;8.55;61.09;99629.30;1722420;80;21465;-61
2023/03/19 07:11:50;;;;;;;39.18;25.75;;;;;;;8.70;61.23;99633.03;1725659;81;21050;-61
2023/03/19 07:14:18;;;;;;;44.27;27.93;;;;;;;8.87;61.25;99636.23;1681194;84;21069;-61
2023/03/19 07:16:45;;;;;;;40.15;28.57;;;;;;;9.09;61.33;99637.03;1728064;81;21092;-61
2023/03/19 07:19:12;;;;;;;43.80;29.17;;;;;;;9.33;61.34;99639.05;1730575;81;21015;-62
2023/03/19 07:21:38;;;;;;;43.00;29.17;;;;;;;9.57;61.25;99642.33;1728564;81;21245;-62
2023/03/19 07:24:05;;;;;;;34.15;22.37;;;;;;;9.85;61.27;99638.48;1735371;81;21015;-62
2023/03/19 07:26:32;;;;;;;38.90;26.07;;;;;;;10.08;61.15;99641.33;1736433;81;21094;-62
2023/03/19 07:28:59;;;;;;;34.10;23.57;;;;;;;10.32;61.12;99635.46;1735523;81;21038;-62
2023/03/19 07:31:26;;;;;;;25.45;18.82;;;;;;;10.52;60.91;99638.42;1728927;81;21078;-62
2023/03/19 07:33:52;;;;;;;26.80;20.15;;;;;;;10.71;60.91;99638.38;1733540;81;21014;-61
2023/03/19 07:36:20;;;;;;;30.43;21.02;;;;;;;10.91;60.86;99638.22;1730929;81;21114;-63
2023/03/19 07:38:47;;;;;;;32.98;21.80;;;;;;;11.10;60.81;99638.62;1729694;81;20942;-62
2023/03/19 07:41:14;;;;;;;31.30;21.48;;;;;;;11.32;60.90;99639.20;1721124;80;21031;-62
2023/03/19 07:43:42;;;;;;;28.05;19.92;;;;;;;11.60;60.85;99637.77;1731524;81;21038;-60
2023/03/19 07:46:09;;;;;;;28.52;19.77;;;;;;;11.92;60.83;99643.08;1727412;81;20989;-61
2023/03/19 07:48:35;;;;;;;26.77;17.87;;;;;;;12.22;60.80;99638.79;1730617;81;21086;-62
2023/03/19 07:51:02;;;;;;;26.67;18.47;;;;;;;12.54;60.50;99637.44;1736386;81;21038;-61
2023/03/19 07:53:29;;;;;;;26.05;17.80;;;;;;;12.80;60.48;99640.34;1729848;81;21574;-62
2023/03/19 07:55:56;;;;;;;23.35;17.73;;;;;;;13.17;60.49;99641.20;1729773;81;21022;-61
2023/03/19 07:58:22;;;;;;;23.27;16.17;;;;;;;13.64;60.54;99632.29;1726744;81;20982;-61
2023/03/19 08:00:49;;;;;;;21.82;15.00;;;;;;;14.24;60.43;99632.95;1727090;81;20990;-62
2023/03/19 08:03:16;;;;;;;24.37;16.87;;;;;;;15.00;60.25;99631.90;1727630;81;21109;-63
2023/03/19 08:05:50;;;;;;;23.90;16.37;;;;;;;15.34;60.00;99633.56;1700003;83;21089;-61
2023/03/19 08:08:17;;;;;;;26.42;16.60;;;;;;;15.50;59.63;99633.84;1695113;83;22061;-61
2023/03/19 08:10:46;;;;;;;20.77;15.55;;;;;;;15.73;60.07;99628.31;1696089;83;21133;-63
2023/03/19 08:13:15;;;;;;;24.82;16.60;;;;;;;16.22;59.93;99628.31;1698905;83;21084;-62
2023/03/19 08:15:41;;;;;;;37.78;27.58;;;;;;;16.59;59.52;99630.90;1733247;81;21004;-61
2023/03/19 08:18:08;;;;;;;33.65;27.65;;;;;;;17.20;59.42;99627.66;1728010;81;21043;-63
2023/03/19 08:20:34;;;;;;;41.00;30.37;;;;;;;17.92;59.37;99622.54;1732952;81;21059;-61
2023/03/19 08:23:02;;;;;;;66.87;56.20;;;;;;;18.46;58.68;99616.44;1719105;81;20969;-62
2023/03/19 08:25:31;;;;;;;24.95;16.67;;;;;;;18.63;57.98;99622.16;1727405;81;21015;-63
2023/03/19 08:27:59;;;;;;;19.57;14.15;;;;;;;19.04;58.08;99615.23;1721952;81;21030;-61
2023/03/19 08:30:26;;;;;;;18.50;14.90;;;;;;;19.56;57.65;99618.74;1723397;81;21015;-63
2023/03/19 08:32:53;;;;;;;26.97;22.48;;;;;;;19.95;57.34;99617.11;1726173;81;21071;-63
2023/03/19 08:35:20;;;;;;;19.77;16.70;;;;;;;20.90;57.55;99605.09;1725855;81;21163;-62
2023/03/19 08:37:46;;;;;;;24.23;15.48;;;;;;;21.86;56.96;99603.14;1730599;81;21071;-63
2023/03/19 08:40:13;;;;;;;19.15;13.30;;;;;;;22.49;56.68;99603.20;1735458;81;21037;-64
2023/03/19 08:42:41;;;;;;;19.48;12.63;;;;;;;23.24;56.04;99598.80;1726170;79;21015;-63
2023/03/19 08:45:14;;;;;;;17.92;12.68;;;;;;;23.99;55.90;99595.53;1735075;81;21051;-62
2023/03/19 08:47:42;;;;;;;19.80;12.07;;;;;;;24.89;55.11;99594.34;1730341;81;21552;-64
2023/03/19 08:50:11;;;;;;;18.50;12.95;;;;;;;25.41;54.59;99596.64;1737507;81;21023;-63
2023/03/19 08:52:40;;;;;;;155.90;140.60;;;;;;;25.14;53.91;99596.02;1735527;81;21059;-65
2023/03/19 08:55:09;;;;;;;16.87;12.47;;;;;;;24.48;52.97;99599.70;1736925;81;21075;-61
2023/03/19 08:57:39;;;;;;;53.70;42.40;;;;;;;24.25;52.90;99597.59;1730296;81;21030;-62
2023/03/19 09:00:06;;;;;;;19.32;11.85;;;;;;;24.32;52.29;99594.62;1730645;81;21125;-62
2023/03/19 09:02:33;;;;;;;14.30;11.33;;;;;;;24.91;52.03;99592.35;1724067;81;21018;-64
2023/03/19 09:05:01;;;;;;;19.30;13.18;;;;;;;25.32;51.32;99586.95;1732623;81;21071;-61
2023/03/19 09:07:28;;;;;;;24.57;18.25;;;;;;;25.07;50.21;99589.67;1734819;81;21103;-66
2023/03/19 09:09:55;;;;;;;14.98;11.48;;;;;;;24.31;49.83;99588.95;1732279;81;20948;-61
2023/03/19 09:12:21;;;;;;;16.87;11.18;;;;;;;24.20;49.84;99586.60;1733779;81;21108;-63
2023/03/19 09:14:48;;;;;;;20.68;10.98;;;;;;;24.44;49.40;99586.33;1735730;81;21107;-65
2023/03/19 09:17:16;;;;;;;13.98;10.30;;;;;;;24.53;48.87;99589.33;1736072;81;21608;-63
2023/03/19 09:19:43;;;;;;;15.95;10.75;;;;;;;24.69;48.56;99600.02;1724139;81;21010;-64
2023/03/19 09:22:11;;;;;;;13.28;9.95;;;;;;;25.11;48.37;99596.33;1705391;82;21597;-61
2023/03/19 09:24:38;;;;;;;17.05;10.93;;;;;;;25.81;47.64;99589.48;1717957;81;21027;-62
2023/03/19 09:27:05;;;;;;;14.78;10.30;;;;;;;26.31;47.48;99584.22;1717462;81;21785;-66
2023/03/19 09:29:32;;;;;;;13.38;9.78;;;;;;;26.88;47.01;99585.64;1724840;81;21090;-65
2023/03/19 09:31:59;;;;;;;22.32;10.30;;;;;;;27.03;46.21;99587.00;1718754;81;21542;-62
2023/03/19 09:34:26;;;;;;;12.35;9.05;;;;;;;27.37;45.89;99587.37;1724038;81;21576;-63
2023/03/19 09:36:52;;;;;;;14.20;9.83;;;;;;;28.04;45.67;99584.24;1729016;81;21007;-62
2023/03/19 09:39:19;;;;;;;70.85;12.23;;;;;;;28.68;44.88;99582.95;1726830;81;21079;-66
2023/03/19 09:41:58;;;;;;;14.58;10.78;;;;;;;29.23;44.69;99581.32;1686946;83;21153;-63
2023/03/19 09:44:33;;;;;;;18.07;9.80;;;;;;;29.30;43.94;99583.25;1694878;83;21072;-63
2023/03/19 09:47:31;;;;;;;12.03;8.73;;;;;;;29.51;43.32;99585.83;1695398;82;21121;-63
2023/03/19 09:50:03;;;;;;;15.45;8.93;;;;;;;29.89;42.96;99577.36;1698970;83;21116;-64
2023/03/19 09:52:41;;;;;;;12.75;7.87;;;;;;;30.50;42.30;99578.68;1665519;84;21088;-64
2023/03/19 09:55:33;;;;;;;11.78;8.43;;;;;;;31.16;42.13;99575.68;1733682;81;21601;-64
2023/03/19 09:58:03;;;;;;;11.28;8.60;;;;;;;32.25;41.43;99570.84;1730453;81;20976;-65
2023/03/19 10:00:36;;;;;;;12.37;6.83;;;;;;;32.35;40.75;99569.53;1732551;81;21671;-65
2023/03/19 10:03:17;;;;;;;9.23;6.47;;;;;;;32.48;40.43;99569.48;1732120;81;21580;-63
2023/03/19 10:06:04;;;;;;;15.88;7.33;;;;;;;32.44;39.63;99572.30;1728814;81;21067;-62
2023/03/19 10:08:46;;;;;;;15.53;7.92;;;;;;;32.91;39.36;99570.05;1730940;81;21395;-62
2023/03/19 10:11:37;;;;;;;12.40;7.70;;;;;;;33.34;38.50;99568.73;1726644;81;21420;-62
2023/03/19 10:14:34;;;;;;;11.90;6.67;;;;;;;33.95;38.34;99579.18;1728056;81;21526;-66
2023/03/19 10:17:06;;;;;;;9.60;7.20;;;;;;;33.97;37.56;99579.76;1728662;80;21130;-65
2023/03/19 10:19:52;;;;;;;10.50;6.72;;;;;;;34.23;36.87;99571.02;1728465;81;20975;-63
2023/03/19 10:22:27;;;;;;;9.35;6.97;;;;;;;34.71;36.64;99579.58;1725101;81;21108;-65
2023/03/19 10:24:57;;;;;;;8.68;6.95;;;;;;;35.62;36.18;99575.97;1731172;80;21047;-62
2023/03/19 10:27:30;;;;;;;7.90;5.85;;;;;;;36.52;35.70;99572.55;1732829;81;21016;-63
2023/03/19 10:30:01;;;;;;;11.22;6.70;;;;;;;37.38;35.37;99567.33;1720407;81;21486;-67
2023/03/19 10:32:39;;;;;;;11.78;6.60;;;;;;;38.67;34.76;99570.40;1728295;81;21021;-65
2023/03/19 10:35:21;;;;;;;15.55;7.15;;;;;;;39.58;33.85;99566.63;1720220;81;21081;-68
2023/03/19 10:37:49;;;;;;;13.28;7.33;;;;;;;38.74;32.99;99566.92;1729219;81;21135;-66
2023/03/19 10:40:25;;;;;;;13.65;7.20;;;;;;;38.71;32.13;99563.35;1697365;83;21082;-64
2023/03/19 10:43:23;;;;;;;12.88;5.85;;;;;;;38.52;31.50;99560.75;1731362;81;21086;-64
2023/03/19 10:45:49;;;;;;;9.33;6.53;;;;;;;37.28;30.59;99557.14;1728403;80;21029;-62
2023/03/19 10:48:19;;;;;;;8.55;5.78;;;;;;;35.42;29.78;99567.66;1708544;82;21023;-62
2023/03/19 10:51:03;;;;;;;13.10;6.60;;;;;;;34.98;29.54;99560.44;1723212;81;21079;-64
2023/03/19 10:53:37;;;;;;;9.23;5.87;;;;;;;36.13;29.34;99559.36;1731314;81;21076;-68
2023/03/19 10:56:28;;;;;;;11.55;6.17;;;;;;;37.85;29.20;99553.23;1710519;81;21615;-68
2023/03/19 10:59:06;;;;;;;29.37;7.60;;;;;;;39.32;28.77;99558.30;1724223;81;21012;-59
2023/03/19 11:01:39;;;;;;;10.63;5.00;;;;;;;40.78;28.79;99559.19;1720945;81;21579;-59
2023/03/19 11:04:20;;;;;;;31.68;7.30;;;;;;;41.76;28.06;99552.34;1730314;82;21093;-59
2023/03/19 11:06:54;;;;;;;8.03;4.62;;;;;;;40.74;25.67;99555.38;1733247;81;21101;-58
2023/03/19 11:09:40;;;;;;;8.33;5.00;;;;;;;38.68;24.62;99564.70;1734318;81;21047;-58
2023/03/19 11:12:26;;;;;;;10.32;5.37;;;;;;;35.74;24.15;99560.48;1726870;81;21026;-58
2023/03/19 11:14:57;;;;;;;9.73;5.03;;;;;;;32.39;23.75;99562.14;1702806;82;21026;-58
2023/03/19 11:17:49;;;;;;;10.50;6.10;;;;;;;30.69;24.56;99562.19;1731048;81;21009;-58
2023/03/19 11:20:25;;;;;;;8.98;6.22;;;;;;;30.71;24.67;99561.48;1725820;81;21232;-58
2023/03/19 11:22:53;;;;;;;14.55;6.03;;;;;;;32.72;24.17;99552.45;1697052;83;21039;-57
2023/03/19 11:25:44;;;;;;;10.20;5.90;;;;;;;33.71;24.51;99553.86;1694000;83;21602;-58
2023/03/19 11:28:16;;;;;;;7.85;6.22;;;;;;;34.97;24.07;99551.98;1672375;84;21559;-58
2023/03/19 11:31:08;;;;;;;8.78;5.70;;;;;;;35.82;23.16;99545.17;1676775;84;21600;-59
2023/03/19 11:34:16;;;;;;;7.33;5.10;;;;;;;37.13;24.23;99541.41;1694761;83;21109;-58
2023/03/19 11:37:26;;;;;;;7.70;5.33;;;;;;;38.03;23.82;99543.89;1679830;84;21028;-58
2023/03/19 11:40:07;;;;;;;7.55;5.05;;;;;;;38.26;23.44;99544.10;1695855;82;21735;-58